Time;durP1;ratioP1;P1;durP2;ratioP2;P2;SDS_P1;SDS_P2;PMS_P1;PMS_P2;Temp;Humidity;BMP_temperature;BMP_pressure;BME280_temperature;BME280_humidity;BME280_pressure;Samples;Min_cycle;Max_cycle;Signal;HPM_P1;HPM_P2
2022/05/14 00:01:14;;;;;;;4.80;1.85;;;21.00;47.70;;;;;;4950366;29;20051;-60
2022/05/14 00:03:41;;;;;;;4.00;1.55;;;21.00;47.60;;;;;;4949770;28;20047;-59
2022/05/14 00:06:12;;;;;;;4.90;1.60;;;21.00;47.60;;;;;;4949268;28;20043;-59
2022/05/14 00:08:39;;;;;;;4.10;1.42;;;21.00;47.60;;;;;;4947425;28;20051;-63
2022/05/14 00:13:50;;;;;;;2.97;1.75;;;21.00;47.60;;;;;;4949802;29;20170;-60
2022/05/14 00:16:17;;;;;;;2.35;1.42;;;21.00;47.50;;;;;;4948555;28;20035;-59
2022/05/14 00:18:43;;;;;;;2.85;1.42;;;21.00;47.50;;;;;;4948901;29;20539;-59
2022/05/14 00:21:10;;;;;;;3.80;1.58;;;21.00;47.50;;;;;;4947980;29;20751;-59
2022/05/14 00:23:35;;;;;;;2.47;1.50;;;21.00;47.50;;;;;;4947960;28;20039;-61
2022/05/14 00:26:01;;;;;;;3.33;1.58;;;21.00;47.40;;;;;;4947924;28;20043;-61
2022/05/14 00:28:27;;;;;;;3.78;1.67;;;21.00;47.40;;;;;;4948817;29;20069;-60
2022/05/14 00:30:52;;;;;;;3.70;1.50;;;21.00;47.40;;;;;;4947406;28;20047;-61
2022/05/14 00:33:18;;;;;;;2.25;1.30;;;21.00;47.40;;;;;;4948639;28;20499;-60
2022/05/14 00:35:44;;;;;;;2.33;1.30;;;21.00;47.40;;;;;;4947678;29;20059;-63
2022/05/14 00:38:10;;;;;;;3.15;1.55;;;21.00;47.30;;;;;;4947399;28;20055;-59
2022/05/14 00:40:42;;;;;;;2.58;1.35;;;21.00;47.30;;;;;;4949109;28;20077;-60
2022/05/14 00:43:09;;;;;;;3.90;1.70;;;21.00;47.30;;;;;;4945504;29;20043;-60
2022/05/14 00:45:38;;;;;;;1.90;1.30;;;21.00;47.30;;;;;;4949009;29;20086;-60
2022/05/14 00:48:05;;;;;;;1.70;1.40;;;21.00;47.30;;;;;;4947999;29;20047;-60
2022/05/14 00:50:42;;;;;;;2.13;1.30;;;21.00;47.30;;;;;;4945715;28;20050;-63
2022/05/14 00:53:27;;;;;;;4.18;1.33;;;21.00;47.20;;;;;;4948961;29;20101;-61
2022/05/14 00:55:56;;;;;;;2.83;1.63;;;21.00;47.30;;;;;;4944922;29;20365;-60
2022/05/14 00:58:41;;;;;;;3.25;1.40;;;21.00;47.30;;;;;;4948530;29;20043;-61
2022/05/14 01:01:07;;;;;;;2.05;1.48;;;21.00;47.30;;;;;;4948188;29;20114;-60
2022/05/14 01:03:33;;;;;;;1.80;1.40;;;20.90;47.20;;;;;;4947358;28;20055;-61
2022/05/14 01:06:01;;;;;;;3.53;1.30;;;20.90;47.20;;;;;;4947260;29;20035;-61
2022/05/14 01:08:29;;;;;;;3.63;1.35;;;21.00;47.20;;;;;;4947584;28;20040;-60
2022/05/14 01:10:56;;;;;;;3.53;1.50;;;20.90;47.10;;;;;;4961519;28;20409;-59
2022/05/14 01:13:22;;;;;;;2.00;1.20;;;20.90;47.10;;;;;;4946064;28;20058;-61
2022/05/14 01:15:50;;;;;;;2.22;1.38;;;21.00;47.20;;;;;;4945723;29;20043;-61
2022/05/14 01:18:17;;;;;;;1.83;1.23;;;20.90;47.10;;;;;;4945386;29;20093;-60
2022/05/14 01:20:52;;;;;;;1.98;1.30;;;21.00;47.20;;;;;;4946350;29;20054;-60
2022/05/14 01:26:27;;;;;;;2.28;1.27;;;20.90;47.10;;;;;;4945760;29;20051;-63
2022/05/14 01:26:29;;;;;;;1.52;1.13;;;20.90;47.10;;;;;;4945566;29;20238;-59
2022/05/14 01:29:01;;;;;;;2.05;1.27;;;20.90;47.20;;;;;;4946700;29;20404;-62
2022/05/14 01:31:27;;;;;;;3.25;1.65;;;20.90;47.20;;;;;;4946902;28;20143;-60
2022/05/14 01:33:54;;;;;;;4.03;1.75;;;20.90;47.20;;;;;;4947819;29;20134;-60
2022/05/14 01:36:20;;;;;;;2.53;1.45;;;20.90;47.20;;;;;;4945212;28;20055;-61
2022/05/14 01:38:46;;;;;;;2.85;1.25;;;20.90;47.20;;;;;;4945653;28;20057;-62
2022/05/14 01:41:12;;;;;;;1.30;1.17;;;20.90;47.10;;;;;;4948712;28;20054;-60
2022/05/14 01:43:38;;;;;;;3.00;1.40;;;20.90;47.10;;;;;;4947141;29;20097;-60
2022/05/14 01:46:04;;;;;;;4.40;1.70;;;20.90;47.10;;;;;;4945912;29;20046;-62
2022/05/14 01:48:30;;;;;;;2.25;1.20;;;20.90;47.20;;;;;;4947075;29;20054;-59
2022/05/14 01:50:55;;;;;;;3.10;1.23;;;20.90;47.10;;;;;;4947055;28;20432;-59
2022/05/14 01:53:21;;;;;;;2.67;1.48;;;20.90;47.10;;;;;;4946135;29;20066;-61
2022/05/14 01:55:47;;;;;;;3.38;1.50;;;20.90;47.20;;;;;;4945906;28;20036;-61
2022/05/14 02:00:56;;;;;;;3.05;1.35;;;20.90;47.20;;;;;;4941183;28;20078;-60
2022/05/14 02:03:22;;;;;;;2.63;1.45;;;20.90;47.20;;;;;;4943545;28;20042;-60
2022/05/14 02:05:47;;;;;;;2.78;1.20;;;20.90;47.20;;;;;;4942305;28;20164;-60
2022/05/14 02:08:13;;;;;;;3.58;1.40;;;20.90;47.20;;;;;;4943036;28;20594;-61
2022/05/14 02:10:39;;;;;;;3.28;1.65;;;20.80;47.20;;;;;;4946069;28;20043;-60
2022/05/14 02:13:04;;;;;;;3.70;1.33;;;20.90;47.20;;;;;;4945346;28;20039;-60
2022/05/14 02:15:30;;;;;;;1.70;1.30;;;20.80;47.10;;;;;;4946052;28;20080;-63
2022/05/14 02:17:57;;;;;;;2.47;1.38;;;20.90;47.30;;;;;;4946773;28;20205;-63
2022/05/14 02:20:23;;;;;;;4.10;1.20;;;20.90;47.30;;;;;;4944594;29;20062;-59
2022/05/14 02:22:49;;;;;;;2.60;1.30;;;20.80;47.20;;;;;;4946618;28;20138;-59
2022/05/14 02:25:15;;;;;;;2.65;1.30;;;20.90;47.30;;;;;;4945588;28;20154;-59
2022/05/14 02:27:40;;;;;;;2.78;1.23;;;20.80;47.20;;;;;;4946137;28;20043;-62
2022/05/14 02:30:07;;;;;;;4.13;1.33;;;20.80;47.20;;;;;;4945788;28;20677;-61
2022/05/14 02:32:32;;;;;;;3.42;1.50;;;20.80;47.20;;;;;;4942468;29;20039;-61
2022/05/14 02:34:59;;;;;;;3.15;1.17;;;20.80;47.20;;;;;;4945536;29;20062;-61
2022/05/14 02:37:26;;;;;;;3.50;1.23;;;20.80;47.20;;;;;;4946996;29;20126;-60
2022/05/14 02:39:52;;;;;;;3.65;1.60;;;20.80;47.30;;;;;;4945779;29;20038;-60
2022/05/14 02:42:18;;;;;;;3.92;1.65;;;20.80;47.20;;;;;;4943626;29;20039;-60
2022/05/14 02:44:44;;;;;;;4.10;1.60;;;20.80;47.30;;;;;;4942428;29;20051;-59
2022/05/14 02:47:10;;;;;;;4.47;1.85;;;20.80;47.30;;;;;;4944373;28;20106;-60
2022/05/14 02:49:36;;;;;;;4.13;1.42;;;20.80;47.30;;;;;;4946022;28;20150;-60
2022/05/14 02:52:03;;;;;;;5.03;1.52;;;20.80;47.30;;;;;;4947024;28;20049;-63
2022/05/14 02:54:29;;;;;;;4.05;1.83;;;20.80;47.30;;;;;;4945915;29;20431;-59
2022/05/14 02:56:54;;;;;;;2.70;1.35;;;20.80;47.30;;;;;;4946130;29;20043;-62
2022/05/14 02:59:20;;;;;;;3.00;1.30;;;20.80;47.30;;;;;;4952528;28;20151;-60
2022/05/14 03:01:49;;;;;;;5.05;1.92;;;20.80;47.30;;;;;;4944447;28;20079;-60
2022/05/14 03:04:27;;;;;;;3.05;1.50;;;20.80;47.40;;;;;;4945307;28;20043;-61
2022/05/14 03:06:54;;;;;;;2.92;1.30;;;20.80;47.30;;;;;;4945049;29;20125;-60
2022/05/14 03:09:20;;;;;;;3.47;1.27;;;20.80;47.30;;;;;;4944880;28;20081;-60
2022/05/14 03:11:46;;;;;;;3.58;1.08;;;20.80;47.40;;;;;;4946709;28;20071;-59
2022/05/14 03:14:13;;;;;;;4.30;1.58;;;20.80;47.40;;;;;;4945529;29;20039;-61
2022/05/14 03:16:40;;;;;;;4.25;1.60;;;20.80;47.40;;;;;;4944345;29;20050;-60
2022/05/14 03:19:07;;;;;;;3.50;1.40;;;20.80;47.40;;;;;;4947254;28;20043;-59
2022/05/14 03:21:33;;;;;;;5.22;1.55;;;20.80;47.40;;;;;;4945935;28;20102;-62
2022/05/14 03:23:59;;;;;;;3.08;1.48;;;20.80;47.40;;;;;;4944222;28;20040;-59
2022/05/14 03:26:24;;;;;;;2.70;1.33;;;20.80;47.40;;;;;;4943063;28;20051;-60
2022/05/14 03:28:50;;;;;;;2.60;1.17;;;20.80;47.40;;;;;;4946713;28;20043;-59
2022/05/14 03:31:16;;;;;;;2.67;1.55;;;20.80;47.40;;;;;;4948718;29;20035;-59
2022/05/14 03:33:41;;;;;;;5.55;1.27;;;20.80;47.40;;;;;;4949257;29;20481;-59
2022/05/14 03:36:08;;;;;;;2.22;1.20;;;20.80;47.40;;;;;;4948414;28;20047;-58
2022/05/14 03:38:35;;;;;;;3.15;1.33;;;20.80;47.40;;;;;;4948364;28;20047;-59
2022/05/14 03:41:01;;;;;;;2.38;1.30;;;20.80;47.30;;;;;;4949314;28;20369;-59
2022/05/14 03:43:27;;;;;;;3.53;1.33;;;20.80;47.40;;;;;;4949649;28;20058;-63
2022/05/14 03:45:52;;;;;;;3.03;1.17;;;20.80;47.40;;;;;;4948855;28;20047;-60
2022/05/14 03:48:18;;;;;;;3.78;1.65;;;20.80;47.40;;;;;;4948968;28;20045;-59
2022/05/14 03:50:44;;;;;;;3.25;1.20;;;20.80;47.40;;;;;;4948798;28;20050;-60
2022/05/14 03:53:09;;;;;;;2.88;1.40;;;20.80;47.40;;;;;;4948244;28;20035;-59
2022/05/14 03:55:35;;;;;;;3.88;1.50;;;20.80;47.40;;;;;;4947639;28;20047;-61
2022/05/14 03:58:00;;;;;;;3.10;1.20;;;20.80;47.30;;;;;;4949199;28;20047;-60
2022/05/14 04:00:26;;;;;;;3.25;1.30;;;20.70;47.30;;;;;;4949135;28;20585;-59
2022/05/14 04:02:51;;;;;;;2.58;1.40;;;20.80;47.40;;;;;;4944035;28;20871;-59
2022/05/14 04:05:17;;;;;;;2.45;1.40;;;20.80;47.30;;;;;;4945450;28;20049;-60
2022/05/14 04:07:43;;;;;;;4.65;1.70;;;20.80;47.30;;;;;;4945942;28;20051;-60
2022/05/14 04:10:12;;;;;;;2.33;1.38;;;20.70;47.30;;;;;;4946807;28;20035;-58
2022/05/14 04:12:38;;;;;;;3.88;1.42;;;20.70;47.20;;;;;;4948148;28;20097;-59
2022/05/14 04:15:04;;;;;;;2.08;1.40;;;20.80;47.30;;;;;;4939422;29;20058;-60
2022/05/14 04:17:30;;;;;;;3.42;1.25;;;20.70;47.20;;;;;;4945776;28;20047;-58
2022/05/14 04:19:55;;;;;;;2.30;1.05;;;20.80;47.30;;;;;;4948418;28;20056;-61
2022/05/14 04:22:21;;;;;;;2.60;1.30;;;20.70;47.20;;;;;;4948375;28;20062;-58
2022/05/14 04:24:47;;;;;;;2.90;1.70;;;20.70;47.20;;;;;;4947265;28;20031;-58
2022/05/14 04:27:12;;;;;;;2.97;1.45;;;20.70;47.20;;;;;;4948688;28;20047;-58
2022/05/14 04:29:38;;;;;;;3.63;1.40;;;20.70;47.20;;;;;;4949110;29;20074;-59
2022/05/14 04:32:04;;;;;;;3.17;1.40;;;20.70;47.20;;;;;;4948717;28;20050;-63
2022/05/14 04:34:29;;;;;;;2.60;1.20;;;20.80;47.20;;;;;;4946712;29;20039;-59
2022/05/14 04:36:55;;;;;;;2.35;1.38;;;20.70;47.20;;;;;;4949751;29;20054;-59
2022/05/14 04:39:31;;;;;;;2.50;1.40;;;20.70;47.20;;;;;;4946428;28;20047;-58
2022/05/14 04:41:58;;;;;;;2.30;1.20;;;20.70;47.20;;;;;;4947714;28;20503;-59
2022/05/14 04:44:23;;;;;;;3.83;1.40;;;20.70;47.20;;;;;;4948849;28;20051;-60
2022/05/14 04:46:49;;;;;;;4.18;1.20;;;20.70;47.20;;;;;;4948172;28;20050;-62
2022/05/14 04:49:15;;;;;;;2.90;1.55;;;20.70;47.20;;;;;;4947074;28;20082;-60
2022/05/14 04:51:40;;;;;;;2.33;1.27;;;20.70;47.20;;;;;;4947290;29;20041;-60
2022/05/14 04:54:06;;;;;;;3.92;1.60;;;20.70;47.20;;;;;;4948087;28;20054;-59
2022/05/14 04:56:31;;;;;;;2.45;1.58;;;20.70;47.20;;;;;;4947305;28;20122;-58
2022/05/14 04:58:57;;;;;;;3.80;1.63;;;20.70;47.30;;;;;;4948946;28;20043;-59
2022/05/14 05:01:22;;;;;;;4.35;1.70;;;20.70;47.20;;;;;;4947244;28;20050;-60
2022/05/14 05:03:48;;;;;;;3.85;1.58;;;20.70;47.20;;;;;;4947127;28;20057;-59
2022/05/14 05:06:14;;;;;;;2.90;1.33;;;20.70;48.00;;;;;;4947149;28;20058;-59
2022/05/14 05:08:40;;;;;;;3.95;1.75;;;20.70;47.20;;;;;;4947672;28;20369;-60
2022/05/14 05:11:06;;;;;;;3.58;1.70;;;20.70;47.20;;;;;;4948297;29;20043;-59
2022/05/14 05:13:35;;;;;;;6.18;1.58;;;20.70;47.30;;;;;;4946148;29;20050;-60
2022/05/14 05:16:00;;;;;;;3.97;1.65;;;20.70;47.30;;;;;;4945671;28;20043;-61
2022/05/14 05:18:26;;;;;;;2.67;1.20;;;20.70;47.30;;;;;;4951939;28;20051;-58
2022/05/14 05:20:54;;;;;;;3.08;1.52;;;20.70;47.30;;;;;;4946427;29;20047;-59
2022/05/14 05:23:22;;;;;;;3.60;1.67;;;20.70;47.40;;;;;;4947142;29;20035;-61
2022/05/14 05:25:48;;;;;;;5.28;1.63;;;20.70;47.40;;;;;;4947236;29;20049;-60
2022/05/14 05:28:14;;;;;;;4.60;1.70;;;20.70;47.40;;;;;;4954579;28;20043;-60
2022/05/14 05:30:39;;;;;;;2.95;1.42;;;20.70;47.40;;;;;;4945664;28;20932;-58
2022/05/14 05:33:14;;;;;;;4.38;1.70;;;20.70;47.40;;;;;;4945688;28;20038;-58
2022/05/14 05:35:39;;;;;;;2.97;1.70;;;20.70;47.40;;;;;;4947988;28;20066;-59
2022/05/14 05:38:05;;;;;;;3.53;1.80;;;20.60;47.40;;;;;;4947923;28;20046;-60
2022/05/14 05:40:31;;;;;;;3.15;1.52;;;20.70;47.50;;;;;;4947573;29;20579;-59
2022/05/14 05:42:56;;;;;;;3.45;1.50;;;20.70;47.50;;;;;;4947402;28;20043;-60
2022/05/14 05:45:22;;;;;;;4.63;1.90;;;20.70;47.50;;;;;;4936121;28;20172;-59
2022/05/14 05:47:48;;;;;;;3.45;1.65;;;20.70;47.50;;;;;;4946725;29;20476;-58
2022/05/14 05:50:13;;;;;;;4.13;1.70;;;20.60;47.40;;;;;;4946074;28;20130;-60
2022/05/14 05:52:39;;;;;;;4.47;1.95;;;20.70;47.50;;;;;;4951220;28;20050;-59
2022/05/14 05:57:57;;;;;;;3.55;1.50;;;20.60;47.50;;;;;;4938347;28;20057;-59
2022/05/14 06:00:25;;;;;;;3.75;1.60;;;20.70;47.60;;;;;;4946380;29;20039;-58
2022/05/14 06:02:50;;;;;;;3.53;1.65;;;20.60;47.60;;;;;;4946472;29;20134;-58
2022/05/14 06:05:17;;;;;;;4.35;1.90;;;20.60;47.60;;;;;;4946261;28;20668;-60
2022/05/14 06:07:42;;;;;;;5.05;1.88;;;20.60;47.70;;;;;;4946183;28;20043;-59
2022/05/14 06:10:11;;;;;;;5.20;1.63;;;20.70;47.60;;;;;;4945485;29;20035;-58
2022/05/14 06:12:38;;;;;;;2.67;1.40;;;20.70;47.70;;;;;;4946157;29;20093;-62
2022/05/14 06:15:06;;;;;;;3.40;1.45;;;20.70;47.70;;;;;;4943127;29;20047;-60
2022/05/14 06:17:32;;;;;;;3.92;1.77;;;20.70;47.70;;;;;;4945993;28;20360;-58
2022/05/14 06:19:57;;;;;;;2.90;1.38;;;20.70;47.70;;;;;;4944380;28;20674;-60
2022/05/14 06:22:23;;;;;;;3.42;1.60;;;20.70;47.70;;;;;;4943136;28;20087;-61
2022/05/14 06:24:48;;;;;;;4.05;1.60;;;20.70;47.70;;;;;;4942496;28;20057;-60
2022/05/14 06:27:14;;;;;;;5.82;1.83;;;20.70;47.80;;;;;;4943463;28;20043;-62
2022/05/14 06:29:39;;;;;;;3.10;1.42;;;20.70;47.80;;;;;;4944602;29;20502;-63
2022/05/14 06:32:05;;;;;;;5.28;1.83;;;20.70;47.70;;;;;;4943112;28;20456;-63
2022/05/14 06:34:31;;;;;;;5.57;1.90;;;20.70;47.80;;;;;;4940083;28;20040;-64
2022/05/14 06:36:57;;;;;;;7.20;3.15;;;20.70;47.90;;;;;;4939737;28;20134;-61
2022/05/14 06:39:22;;;;;;;10.25;3.92;;;20.80;48.00;;;;;;4942389;28;20670;-60
2022/05/14 06:41:48;;;;;;;5.20;1.67;;;20.70;48.20;;;;;;4939933;28;20575;-61
2022/05/14 06:44:15;;;;;;;5.35;2.00;;;20.70;48.40;;;;;;4943200;28;20051;-62
2022/05/14 06:46:40;;;;;;;10.60;2.75;;;20.70;48.60;;;;;;4947357;29;20554;-63
2022/05/14 06:49:06;;;;;;;9.25;2.75;;;20.80;48.90;;;;;;4947679;29;20098;-62
2022/05/14 06:51:33;;;;;;;6.25;2.45;;;20.80;49.10;;;;;;4947123;29;20122;-63
2022/05/14 06:54:06;;;;;;;6.85;2.72;;;20.80;49.10;;;;;;4947394;29;20035;-61
2022/05/14 06:56:34;;;;;;;7.70;2.90;;;20.80;49.30;;;;;;4947050;28;20035;-59
2022/05/14 06:59:00;;;;;;;8.23;3.10;;;20.80;49.40;;;;;;4946484;29;20043;-60
2022/05/14 07:01:28;;;;;;;10.30;3.97;;;20.80;49.40;;;;;;4948273;28;20053;-62
2022/05/14 07:06:42;;;;;;;6.95;2.90;;;20.80;49.90;;;;;;4949499;29;20218;-59
2022/05/14 07:09:22;;;;;;;6.25;3.22;;;20.90;49.50;;;;;;4949463;28;20166;-59
2022/05/14 07:11:50;;;;;;;7.57;3.00;;;20.90;49.60;;;;;;4940542;29;20122;-59
2022/05/14 07:14:19;;;;;;;8.25;3.25;;;20.80;49.60;;;;;;4950844;29;20075;-62
2022/05/14 07:16:46;;;;;;;9.32;3.17;;;20.80;50.30;;;;;;4948258;29;20503;-61
2022/05/14 07:19:12;;;;;;;10.63;3.45;;;20.90;49.90;;;;;;4949847;29;20452;-62
2022/05/14 07:21:40;;;;;;;7.38;2.97;;;20.90;50.10;;;;;;4946555;29;20126;-62
2022/05/14 07:24:08;;;;;;;10.05;3.70;;;20.90;50.10;;;;;;4949833;28;20126;-62
2022/05/14 07:26:35;;;;;;;10.18;3.58;;;20.90;50.10;;;;;;4947431;29;20054;-59
2022/05/14 07:29:04;;;;;;;9.23;3.35;;;20.90;50.20;;;;;;4943025;28;20162;-60
2022/05/14 07:31:29;;;;;;;12.55;3.28;;;20.90;50.40;;;;;;4944431;28;20107;-59
2022/05/14 07:33:55;;;;;;;11.75;4.13;;;20.90;50.50;;;;;;4947803;28;20516;-61
2022/05/14 07:36:22;;;;;;;13.10;4.20;;;20.90;49.90;;;;;;4946461;28;20055;-60
2022/05/14 07:38:48;;;;;;;14.23;5.07;;;20.90;50.00;;;;;;4946932;29;20061;-61
2022/05/14 07:41:15;;;;;;;12.38;4.40;;;20.90;50.10;;;;;;4946969;29;20629;-62
2022/05/14 07:43:44;;;;;;;13.00;4.65;;;20.80;50.00;;;;;;4948233;28;20043;-61
2022/05/14 07:46:14;;;;;;;14.75;5.10;;;20.80;50.00;;;;;;4946765;29;20047;-61
2022/05/14 07:48:40;;;;;;;16.02;5.05;;;20.90;50.00;;;;;;4949998;28;20986;-61
2022/05/14 07:51:10;;;;;;;13.02;4.30;;;20.80;49.80;;;;;;4948556;28;20058;-63
2022/05/14 07:53:35;;;;;;;15.05;5.45;;;20.80;49.70;;;;;;4949595;28;20039;-62
2022/05/14 07:56:02;;;;;;;13.73;4.38;;;20.80;49.80;;;;;;4947644;29;20153;-64
2022/05/14 07:58:28;;;;;;;11.70;4.38;;;20.80;50.60;;;;;;4947815;29;20050;-61
2022/05/14 08:00:55;;;;;;;13.40;4.35;;;20.80;49.90;;;;;;4947530;29;20411;-60
2022/05/14 08:03:24;;;;;;;9.45;3.80;;;20.80;50.00;;;;;;4948718;29;20075;-60
2022/05/14 08:05:51;;;;;;;11.80;4.13;;;20.80;50.10;;;;;;4947811;29;20047;-61
2022/05/14 08:08:17;;;;;;;11.88;4.32;;;20.80;50.30;;;;;;4948772;28;20487;-59
2022/05/14 08:10:43;;;;;;;12.55;4.10;;;20.80;50.70;;;;;;4944974;28;20058;-59
2022/05/14 08:13:15;;;;;;;12.85;4.40;;;20.80;50.40;;;;;;4946724;28;20043;-59
2022/05/14 08:15:41;;;;;;;11.45;4.35;;;20.80;50.90;;;;;;4949508;29;20133;-58
2022/05/14 08:18:07;;;;;;;10.95;4.65;;;20.80;51.20;;;;;;4948357;29;20122;-58
2022/05/14 08:20:33;;;;;;;12.60;4.25;;;20.80;51.40;;;;;;4946591;28;20126;-58
2022/05/14 08:25:43;;;;;;;14.57;4.10;;;20.80;51.30;;;;;;4949072;28;20174;-59
2022/05/14 08:28:09;;;;;;;12.23;3.83;;;20.90;51.10;;;;;;4949128;29;20469;-58
2022/05/14 08:30:36;;;;;;;13.48;4.57;;;20.90;51.00;;;;;;4953533;28;20093;-60
2022/05/14 08:33:03;;;;;;;15.80;4.72;;;20.90;50.40;;;;;;4945974;28;20043;-59
2022/05/14 08:35:29;;;;;;;16.27;4.85;;;20.80;49.80;;;;;;4943270;28;20058;-60
2022/05/14 08:37:55;;;;;;;13.02;4.28;;;20.80;49.60;;;;;;4947657;29;20492;-61
2022/05/14 08:40:28;;;;;;;14.43;4.60;;;20.80;49.50;;;;;;4946306;28;20046;-59
2022/05/14 08:42:59;;;;;;;10.27;3.75;;;20.80;49.40;;;;;;4948089;28;20038;-59
2022/05/14 08:45:28;;;;;;;11.13;4.07;;;20.80;49.40;;;;;;4947586;28;20866;-60
2022/05/14 08:48:01;;;;;;;11.13;3.67;;;20.80;49.50;;;;;;4948421;29;20448;-59
2022/05/14 08:50:31;;;;;;;13.75;4.53;;;20.80;49.40;;;;;;4941002;28;20035;-59
2022/05/14 08:53:00;;;;;;;14.85;4.40;;;20.80;49.00;;;;;;4948049;28;20443;-59
2022/05/14 08:55:46;;;;;;;13.32;4.57;;;20.80;49.30;;;;;;4946453;29;20895;-58
2022/05/14 08:58:20;;;;;;;14.95;4.50;;;20.80;49.40;;;;;;4946512;29;20047;-60
2022/05/14 09:00:46;;;;;;;13.05;4.40;;;20.80;49.10;;;;;;4948114;29;20508;-60
2022/05/14 09:03:12;;;;;;;12.20;4.13;;;20.80;48.80;;;;;;4947743;29;20130;-60
2022/05/14 09:05:38;;;;;;;14.43;4.68;;;20.80;48.60;;;;;;4947346;28;20241;-59
2022/05/14 09:08:04;;;;;;;12.10;4.40;;;20.80;48.60;;;;;;4952779;28;20093;-59
2022/05/14 09:10:38;;;;;;;11.18;4.38;;;20.80;47.90;;;;;;4946606;28;20075;-61
2022/05/14 09:13:22;;;;;;;16.85;4.95;;;20.80;48.10;;;;;;4947470;29;20052;-58
2022/05/14 09:15:59;;;;;;;13.63;4.78;;;20.80;47.70;;;;;;4946210;28;20047;-59
2022/05/14 09:18:24;;;;;;;16.05;4.68;;;20.70;48.00;;;;;;4947529;29;20411;-61
2022/05/14 09:20:57;;;;;;;12.55;4.63;;;20.70;48.00;;;;;;4947914;28;20057;-60
2022/05/14 09:23:26;;;;;;;14.48;4.60;;;20.60;48.00;;;;;;4947579;29;20174;-59
2022/05/14 09:25:52;;;;;;;11.73;4.15;;;20.60;48.10;;;;;;4945088;28;20047;-62
2022/05/14 09:28:40;;;;;;;11.90;4.32;;;20.60;47.90;;;;;;4945354;29;20031;-61
2022/05/14 09:31:07;;;;;;;18.27;6.07;;;20.60;47.70;;;;;;4939162;29;20058;-59
2022/05/14 09:33:40;;;;;;;17.45;4.82;;;20.60;47.90;;;;;;4947894;29;20118;-58
2022/05/14 09:36:15;;;;;;;13.70;4.68;;;20.60;47.70;;;;;;4945685;29;20078;-59
2022/05/14 09:38:42;;;;;;;16.65;5.13;;;20.60;48.00;;;;;;4941537;28;20238;-62
2022/05/14 09:41:18;;;;;;;15.07;4.70;;;20.50;47.90;;;;;;4943254;28;20043;-60
2022/05/14 09:43:44;;;;;;;13.25;5.15;;;20.50;48.00;;;;;;4936412;28;20640;-62
2022/05/14 09:46:24;;;;;;;15.52;4.32;;;20.50;48.10;;;;;;4944054;29;20039;-60
2022/05/14 09:48:52;;;;;;;18.65;5.60;;;20.50;48.30;;;;;;4943204;28;20093;-60
2022/05/14 09:51:32;;;;;;;12.70;4.32;;;20.50;48.40;;;;;;4944506;29;20031;-60
2022/05/14 09:54:25;;;;;;;13.75;3.90;;;20.50;48.00;;;;;;4935099;28;20047;-60
2022/05/14 09:57:07;;;;;;;11.23;4.00;;;20.50;47.80;;;;;;4944391;29;20043;-63
2022/05/14 10:00:00;;;;;;;14.35;4.35;;;20.50;47.50;;;;;;4942781;29;20058;-59
2022/05/14 10:02:47;;;;;;;13.52;3.97;;;20.50;47.10;;;;;;4942856;29;20776;-60
2022/05/14 10:05:36;;;;;;;16.08;4.35;;;20.50;47.10;;;;;;4941380;29;20094;-61
2022/05/14 10:08:30;;;;;;;13.57;4.75;;;20.50;47.30;;;;;;4943458;29;20047;-61
2022/05/14 10:11:25;;;;;;;10.40;3.75;;;20.50;47.50;;;;;;4942228;29;20043;-60
2022/05/14 10:14:04;;;;;;;12.55;3.78;;;20.50;47.70;;;;;;4938481;29;20061;-59
2022/05/14 10:16:37;;;;;;;11.00;3.92;;;20.50;47.90;;;;;;4945625;28;20098;-60
2022/05/14 10:19:40;;;;;;;17.85;4.57;;;20.60;48.20;;;;;;4946878;29;20486;-64
2022/05/14 10:22:08;;;;;;;15.38;4.18;;;20.60;47.40;;;;;;4946705;29;20073;-62
2022/05/14 10:28:07;;;;;;;11.57;4.25;;;20.60;47.70;;;;;;4945101;29;20089;-61
2022/05/14 10:31:09;;;;;;;11.40;4.30;;;20.70;47.50;;;;;;4945678;28;20043;-61
2022/05/14 10:33:35;;;;;;;14.35;4.50;;;20.70;46.80;;;;;;4945145;29;20158;-59
2022/05/14 10:36:18;;;;;;;12.88;4.75;;;20.60;47.10;;;;;;4945553;29;20178;-60
2022/05/14 10:38:45;;;;;;;13.95;4.00;;;20.60;47.30;;;;;;4946214;28;20070;-61
2022/05/14 10:41:11;;;;;;;12.70;4.25;;;20.60;47.20;;;;;;4944392;28;20066;-61
2022/05/14 10:43:56;;;;;;;7.78;3.30;;;20.60;47.20;;;;;;4944233;28;20093;-60
2022/05/14 10:46:25;;;;;;;11.60;3.72;;;20.60;47.30;;;;;;4946100;28;20051;-61
2022/05/14 10:49:00;;;;;;;16.80;4.88;;;20.60;47.40;;;;;;4945726;28;20093;-60
2022/05/14 10:51:29;;;;;;;14.02;4.30;;;20.60;47.60;;;;;;4944656;28;20495;-61
2022/05/14 10:53:57;;;;;;;15.15;4.20;;;20.60;47.40;;;;;;4939057;29;20745;-61
2022/05/14 10:56:35;;;;;;;17.40;4.25;;;20.60;47.50;;;;;;4940470;29;20491;-62
2022/05/14 10:59:08;;;;;;;12.63;4.13;;;20.70;47.70;;;;;;4944958;29;20608;-60
2022/05/14 11:01:43;;;;;;;11.75;4.20;;;20.60;47.50;;;;;;4943386;28;20073;-64
2022/05/14 11:04:24;;;;;;;15.25;4.57;;;20.60;47.00;;;;;;4941882;28;20043;-61
2022/05/14 11:06:55;;;;;;;15.50;3.95;;;20.60;46.90;;;;;;4940399;28;20180;-62
2022/05/14 11:09:42;;;;;;;16.88;4.88;;;20.60;46.60;;;;;;4943834;28;20051;-62
2022/05/14 11:12:34;;;;;;;11.85;3.85;;;20.60;46.60;;;;;;4926005;29;20170;-60
2022/05/14 11:15:02;;;;;;;14.82;4.00;;;20.60;47.40;;;;;;4944077;29;20134;-60
2022/05/14 11:17:36;;;;;;;11.65;4.45;;;20.60;46.80;;;;;;4945879;28;20047;-60
2022/05/14 11:20:04;;;;;;;11.52;4.07;;;20.60;46.70;;;;;;4945602;29;20039;-62
2022/05/14 11:22:34;;;;;;;12.57;4.25;;;20.60;46.50;;;;;;4946036;28;20071;-61
2022/05/14 11:25:21;;;;;;;14.48;4.15;;;20.60;46.30;;;;;;4947256;29;20118;-60
2022/05/14 11:28:04;;;;;;;14.18;4.00;;;20.60;46.30;;;;;;4945672;29;20051;-61
2022/05/14 11:30:53;;;;;;;10.43;3.90;;;20.60;46.10;;;;;;4946278;29;20230;-62
2022/05/14 11:33:32;;;;;;;12.25;4.15;;;20.60;45.80;;;;;;4941515;29;20047;-60
2022/05/14 11:36:12;;;;;;;13.00;4.20;;;20.60;45.70;;;;;;4942072;29;20082;-64
2022/05/14 11:38:40;;;;;;;14.13;4.13;;;20.60;45.60;;;;;;4944695;29;20511;-60
2022/05/14 11:41:25;;;;;;;10.68;4.13;;;20.60;45.50;;;;;;4945258;28;20066;-61
2022/05/14 11:43:51;;;;;;;10.52;4.20;;;20.60;45.60;;;;;;4944104;29;20126;-61
2022/05/14 11:46:28;;;;;;;16.17;4.78;;;20.60;45.70;;;;;;4944659;28;20047;-62
2022/05/14 11:49:06;;;;;;;12.73;4.40;;;20.70;45.90;;;;;;4946944;28;20072;-64
2022/05/14 11:51:53;;;;;;;12.45;3.70;;;20.70;45.70;;;;;;4945544;28;20057;-61
2022/05/14 11:54:50;;;;;;;15.07;4.07;;;20.70;45.50;;;;;;4944425;28;20144;-60
2022/05/14 11:57:27;;;;;;;11.65;4.15;;;20.70;45.00;;;;;;4944433;28;20039;-60
2022/05/14 12:00:08;;;;;;;11.80;3.92;;;20.70;45.10;;;;;;4948046;29;20047;-60
2022/05/14 12:02:44;;;;;;;14.90;4.25;;;20.70;45.30;;;;;;4946644;29;20401;-62
2022/05/14 12:05:29;;;;;;;14.65;4.53;;;20.70;45.40;;;;;;4947484;28;20082;-60
2022/05/14 12:08:13;;;;;;;15.88;4.18;;;20.70;45.40;;;;;;4945686;28;20448;-61
2022/05/14 12:10:52;;;;;;;11.68;3.55;;;20.70;45.20;;;;;;4961524;28;20138;-61
2022/05/14 12:13:34;;;;;;;12.30;3.78;;;20.70;44.90;;;;;;4947740;29;20043;-62
2022/05/14 12:16:00;;;;;;;13.55;4.28;;;20.80;44.90;;;;;;4947797;29;20047;-61
2022/05/14 12:18:27;;;;;;;14.68;3.83;;;20.70;44.80;;;;;;4945567;29;20086;-60
2022/05/14 12:21:03;;;;;;;12.75;4.20;;;20.70;44.80;;;;;;4949524;29;20047;-60
2022/05/14 12:23:35;;;;;;;13.93;4.57;;;20.70;44.60;;;;;;4946270;29;20039;-63
2022/05/14 12:26:05;;;;;;;13.38;4.32;;;20.70;44.40;;;;;;4945571;29;20045;-60
2022/05/14 12:28:33;;;;;;;9.95;4.03;;;20.70;44.40;;;;;;4945503;28;20106;-60
2022/05/14 12:34:07;;;;;;;10.90;3.85;;;20.80;44.60;;;;;;4947469;29;20519;-61
2022/05/14 12:36:52;;;;;;;11.40;3.63;;;20.80;44.60;;;;;;4948048;29;20515;-60
2022/05/14 12:39:23;;;;;;;10.48;3.60;;;20.80;45.60;;;;;;4949111;29;20051;-59
2022/05/14 12:42:06;;;;;;;9.68;3.67;;;20.80;44.90;;;;;;4948650;29;20412;-62
2022/05/14 12:44:41;;;;;;;10.38;3.75;;;20.80;45.00;;;;;;4948019;29;20058;-62
2022/05/14 12:47:08;;;;;;;10.80;3.63;;;20.80;45.00;;;;;;4948988;29;20614;-60
2022/05/14 12:49:38;;;;;;;10.02;4.50;;;20.80;45.00;;;;;;4948012;28;20678;-60
2022/05/14 12:52:08;;;;;;;11.27;3.80;;;20.80;45.10;;;;;;4948561;28;20043;-60
2022/05/14 12:54:35;;;;;;;13.38;3.25;;;20.80;45.20;;;;;;4948621;29;20086;-62
2022/05/14 12:57:05;;;;;;;7.55;3.20;;;20.80;45.20;;;;;;4949291;28;20514;-59
2022/05/14 12:59:31;;;;;;;10.85;3.90;;;20.80;45.30;;;;;;4948151;28;20440;-62
2022/05/14 13:02:03;;;;;;;9.93;3.30;;;20.80;45.40;;;;;;4946241;29;20129;-61
2022/05/14 13:04:53;;;;;;;10.02;3.35;;;20.80;45.40;;;;;;4948494;29;20062;-63
2022/05/14 13:07:19;;;;;;;10.77;3.45;;;20.80;45.50;;;;;;4949228;29;20070;-61
2022/05/14 13:09:46;;;;;;;10.95;3.58;;;20.80;45.50;;;;;;4946356;28;20074;-60
2022/05/14 13:12:22;;;;;;;9.30;3.10;;;20.80;45.70;;;;;;4948698;29;20592;-61
2022/05/14 13:14:52;;;;;;;7.03;3.60;;;20.80;45.70;;;;;;4937865;29;20031;-60
2022/05/14 13:17:18;;;;;;;10.57;3.47;;;20.80;46.00;;;;;;4948553;29;20043;-62